sensor_id;sensor_type;location;lat;lon;timestamp;pressure;altitude;pressure_sealevel;temperature;humidity
18918;BME280;9591;52.742;13.650;2023-07-31T00:02:24;100564.50;;;20.43;100.00
18918;BME280;9591;52.742;13.650;2023-07-31T00:05:13;100563.44;;;20.33;100.00
18918;BME280;9591;52.742;13.650;2023-07-31T00:08:00;100576.38;;;20.27;100.00
18918;BME280;9591;52.742;13.650;2023-07-31T00:10:47;100569.25;;;20.39;100.00
18918;BME280;9591;52.742;13.650;2023-07-31T00:13:33;100566.53;;;20.15;100.00
18918;BME280;9591;52.742;13.650;2023-07-31T00:16:21;100564.34;;;20.20;100.00
18918;BME280;9591;52.742;13.650;2023-07-31T00:19:08;100562.25;;;20.13;100.00
18918;BME280;9591;52.742;13.650;2023-07-31T00:21:56;100565.03;;;20.11;100.00
18918;BME280;9591;52.742;13.650;2023-07-31T00:24:43;100551.78;;;20.21;100.00
18918;BME280;9591;52.742;13.650;2023-07-31T00:27:30;100553.72;;;20.19;100.00
18918;BME280;9591;52.742;13.650;2023-07-31T00:30:17;100555.31;;;20.21;100.00
18918;BME280;9591;52.742;13.650;2023-07-31T00:33:04;100552.34;;;20.13;100.00
18918;BME280;9591;52.742;13.650;2023-07-31T00:35:51;100551.88;;;19.95;100.00
18918;BME280;9591;52.742;13.650;2023-07-31T00:38:39;100557.16;;;19.97;100.00
18918;BME280;9591;52.742;13.650;2023-07-31T00:41:26;100546.44;;;20.08;100.00
18918;BME280;9591;52.742;13.650;2023-07-31T00:44:13;100538.84;;;20.02;100.00
18918;BME280;9591;52.742;13.650;2023-07-31T00:47:01;100548.59;;;19.92;100.00
18918;BME280;9591;52.742;13.650;2023-07-31T00:49:48;100543.75;;;20.08;100.00
18918;BME280;9591;52.742;13.650;2023-07-31T00:52:35;100536.34;;;19.88;100.00
18918;BME280;9591;52.742;13.650;2023-07-31T00:55:24;100530.75;;;19.91;100.00
18918;BME280;9591;52.742;13.650;2023-07-31T00:58:11;100530.56;;;20.05;100.00
18918;BME280;9591;52.742;13.650;2023-07-31T01:00:58;100528.00;;;19.80;100.00
18918;BME280;9591;52.742;13.650;2023-07-31T01:03:45;100521.09;;;19.88;100.00
18918;BME280;9591;52.742;13.650;2023-07-31T01:06:37;100532.47;;;19.92;100.00
18918;BME280;9591;52.742;13.650;2023-07-31T01:09:32;100522.81;;;19.89;100.00
18918;BME280;9591;52.742;13.650;2023-07-31T01:12:23;100520.22;;;19.88;100.00
18918;BME280;9591;52.742;13.650;2023-07-31T01:15:10;100516.78;;;19.86;100.00
18918;BME280;9591;52.742;13.650;2023-07-31T01:17:57;100516.88;;;20.08;100.00
18918;BME280;9591;52.742;13.650;2023-07-31T01:20:50;100520.69;;;19.82;100.00
18918;BME280;9591;52.742;13.650;2023-07-31T01:23:54;100510.34;;;19.88;100.00
18918;BME280;9591;52.742;13.650;2023-07-31T01:26:55;100515.75;;;20.00;100.00
18918;BME280;9591;52.742;13.650;2023-07-31T01:29:47;100513.34;;;20.08;100.00
18918;BME280;9591;52.742;13.650;2023-07-31T01:32:35;100507.72;;;20.11;100.00
18918;BME280;9591;52.742;13.650;2023-07-31T01:35:23;100511.00;;;20.03;100.00
18918;BME280;9591;52.742;13.650;2023-07-31T01:38:10;100512.19;;;19.99;100.00
18918;BME280;9591;52.742;13.650;2023-07-31T01:40:57;100510.13;;;20.03;100.00
18918;BME280;9591;52.742;13.650;2023-07-31T01:43:46;100489.59;;;20.02;100.00
18918;BME280;9591;52.742;13.650;2023-07-31T01:46:32;100499.13;;;20.29;100.00
18918;BME280;9591;52.742;13.650;2023-07-31T01:49:19;100507.03;;;19.96;100.00
18918;BME280;9591;52.742;13.650;2023-07-31T01:52:06;100508.81;;;20.08;100.00
18918;BME280;9591;52.742;13.650;2023-07-31T01:54:54;100511.88;;;19.80;100.00
18918;BME280;9591;52.742;13.650;2023-07-31T01:57:45;100515.09;;;19.96;100.00
18918;BME280;9591;52.742;13.650;2023-07-31T02:00:33;100526.38;;;20.01;100.00
18918;BME280;9591;52.742;13.650;2023-07-31T02:03:20;100523.47;;;20.04;100.00
18918;BME280;9591;52.742;13.650;2023-07-31T02:06:09;100525.41;;;20.02;100.00
18918;BME280;9591;52.742;13.650;2023-07-31T02:08:56;100521.22;;;19.98;100.00
18918;BME280;9591;52.742;13.650;2023-07-31T02:11:43;100519.63;;;20.19;100.00
18918;BME280;9591;52.742;13.650;2023-07-31T02:14:29;100521.19;;;20.11;100.00
18918;BME280;9591;52.742;13.650;2023-07-31T02:17:18;100525.88;;;19.96;100.00
18918;BME280;9591;52.742;13.650;2023-07-31T02:20:06;100518.50;;;19.87;100.00
18918;BME280;9591;52.742;13.650;2023-07-31T02:22:53;100511.97;;;20.02;100.00
18918;BME280;9591;52.742;13.650;2023-07-31T02:25:40;100522.09;;;20.22;100.00
18918;BME280;9591;52.742;13.650;2023-07-31T02:28:30;100508.16;;;20.28;100.00
18918;BME280;9591;52.742;13.650;2023-07-31T02:31:18;100505.94;;;20.22;100.00
18918;BME280;9591;52.742;13.650;2023-07-31T02:34:12;100495.00;;;20.37;100.00
18918;BME280;9591;52.742;13.650;2023-07-31T02:37:06;100504.34;;;20.20;100.00
18918;BME280;9591;52.742;13.650;2023-07-31T02:39:54;100493.75;;;20.29;100.00
18918;BME280;9591;52.742;13.650;2023-07-31T02:42:41;100485.28;;;20.47;100.00
18918;BME280;9591;52.742;13.650;2023-07-31T02:45:28;100488.16;;;20.33;100.00
18918;BME280;9591;52.742;13.650;2023-07-31T02:48:15;100487.88;;;20.24;100.00
18918;BME280;9591;52.742;13.650;2023-07-31T02:51:03;100485.00;;;20.39;100.00
18918;BME280;9591;52.742;13.650;2023-07-31T02:53:49;100484.91;;;20.40;100.00
18918;BME280;9591;52.742;13.650;2023-07-31T02:56:36;100481.59;;;20.13;100.00
18918;BME280;9591;52.742;13.650;2023-07-31T02:59:23;100481.25;;;20.17;100.00
18918;BME280;9591;52.742;13.650;2023-07-31T03:02:11;100480.03;;;20.21;100.00
18918;BME280;9591;52.742;13.650;2023-07-31T03:04:58;100475.69;;;20.08;100.00
18918;BME280;9591;52.742;13.650;2023-07-31T03:07:46;100493.66;;;20.07;100.00
18918;BME280;9591;52.742;13.650;2023-07-31T03:10:33;100480.38;;;20.17;100.00
18918;BME280;9591;52.742;13.650;2023-07-31T03:13:20;100479.63;;;20.39;100.00
18918;BME280;9591;52.742;13.650;2023-07-31T03:16:07;100478.94;;;20.24;100.00
18918;BME280;9591;52.742;13.650;2023-07-31T03:18:54;100469.00;;;20.13;100.00
18918;BME280;9591;52.742;13.650;2023-07-31T03:21:41;100475.19;;;20.03;100.00
18918;BME280;9591;52.742;13.650;2023-07-31T03:24:29;100468.78;;;19.81;100.00
18918;BME280;9591;52.742;13.650;2023-07-31T03:27:16;100468.38;;;19.75;100.00
18918;BME280;9591;52.742;13.650;2023-07-31T03:30:03;100472.84;;;19.87;100.00
18918;BME280;9591;52.742;13.650;2023-07-31T03:32:50;100470.06;;;20.00;100.00
18918;BME280;9591;52.742;13.650;2023-07-31T03:35:37;100462.31;;;19.84;100.00
18918;BME280;9591;52.742;13.650;2023-07-31T03:38:24;100454.06;;;19.74;100.00
18918;BME280;9591;52.742;13.650;2023-07-31T03:41:13;100447.09;;;19.72;100.00
18918;BME280;9591;52.742;13.650;2023-07-31T03:44:03;100443.97;;;19.78;100.00
18918;BME280;9591;52.742;13.650;2023-07-31T03:46:51;100447.91;;;19.96;100.00
18918;BME280;9591;52.742;13.650;2023-07-31T03:49:38;100441.31;;;19.89;100.00
18918;BME280;9591;52.742;13.650;2023-07-31T03:52:25;100434.25;;;19.99;100.00
18918;BME280;9591;52.742;13.650;2023-07-31T03:55:14;100433.91;;;20.04;100.00
18918;BME280;9591;52.742;13.650;2023-07-31T03:58:04;100433.75;;;19.94;100.00
18918;BME280;9591;52.742;13.650;2023-07-31T04:00:51;100424.47;;;19.98;100.00
18918;BME280;9591;52.742;13.650;2023-07-31T04:03:38;100424.13;;;19.91;100.00
18918;BME280;9591;52.742;13.650;2023-07-31T04:06:25;100415.94;;;19.93;100.00
18918;BME280;9591;52.742;13.650;2023-07-31T04:09:13;100423.63;;;19.97;100.00
18918;BME280;9591;52.742;13.650;2023-07-31T04:12:00;100419.19;;;20.20;100.00
18918;BME280;9591;52.742;13.650;2023-07-31T04:14:48;100411.59;;;20.25;100.00
18918;BME280;9591;52.742;13.650;2023-07-31T04:17:36;100405.88;;;20.30;100.00
18918;BME280;9591;52.742;13.650;2023-07-31T04:20:25;100409.91;;;20.24;100.00
18918;BME280;9591;52.742;13.650;2023-07-31T04:23:13;100404.50;;;20.13;100.00
18918;BME280;9591;52.742;13.650;2023-07-31T04:26:01;100405.72;;;20.20;100.00
18918;BME280;9591;52.742;13.650;2023-07-31T04:28:48;100404.16;;;20.29;100.00
18918;BME280;9591;52.742;13.650;2023-07-31T04:31:38;100405.41;;;20.36;100.00
18918;BME280;9591;52.742;13.650;2023-07-31T04:34:25;100404.78;;;20.33;100.00
18918;BME280;9591;52.742;13.650;2023-07-31T04:37:12;100400.44;;;20.43;100.00
18918;BME280;9591;52.742;13.650;2023-07-31T04:40:00;100396.84;;;20.31;100.00
18918;BME280;9591;52.742;13.650;2023-07-31T04:42:49;100397.81;;;20.30;100.00
18918;BME280;9591;52.742;13.650;2023-07-31T04:45:36;100401.16;;;20.45;100.00
18918;BME280;9591;52.742;13.650;2023-07-31T04:48:24;100398.88;;;20.74;100.00
18918;BME280;9591;52.742;13.650;2023-07-31T04:51:13;100391.66;;;20.63;100.00
18918;BME280;9591;52.742;13.650;2023-07-31T04:54:02;100398.63;;;20.66;100.00
18918;BME280;9591;52.742;13.650;2023-07-31T04:56:49;100399.44;;;21.00;100.00
18918;BME280;9591;52.742;13.650;2023-07-31T04:59:36;100400.91;;;21.04;100.00
18918;BME280;9591;52.742;13.650;2023-07-31T05:02:23;100411.69;;;20.92;100.00
18918;BME280;9591;52.742;13.650;2023-07-31T05:05:11;100401.56;;;20.74;100.00
18918;BME280;9591;52.742;13.650;2023-07-31T05:07:58;100402.06;;;20.79;100.00
18918;BME280;9591;52.742;13.650;2023-07-31T05:10:45;100400.09;;;20.58;100.00
18918;BME280;9591;52.742;13.650;2023-07-31T05:13:32;100400.69;;;20.51;100.00
18918;BME280;9591;52.742;13.650;2023-07-31T05:16:19;100396.78;;;20.55;100.00
18918;BME280;9591;52.742;13.650;2023-07-31T05:19:06;100393.47;;;20.40;100.00
18918;BME280;9591;52.742;13.650;2023-07-31T05:21:54;100394.09;;;20.55;100.00
18918;BME280;9591;52.742;13.650;2023-07-31T05:24:41;100391.03;;;20.59;100.00
18918;BME280;9591;52.742;13.650;2023-07-31T05:27:28;100393.34;;;20.42;100.00
18918;BME280;9591;52.742;13.650;2023-07-31T05:30:15;100387.63;;;20.57;100.00
18918;BME280;9591;52.742;13.650;2023-07-31T05:33:02;100399.88;;;20.26;100.00
18918;BME280;9591;52.742;13.650;2023-07-31T05:35:49;100395.50;;;20.37;100.00
18918;BME280;9591;52.742;13.650;2023-07-31T05:38:37;100382.34;;;20.45;100.00
18918;BME280;9591;52.742;13.650;2023-07-31T05:41:27;100382.47;;;20.66;100.00
18918;BME280;9591;52.742;13.650;2023-07-31T05:44:14;100377.59;;;20.71;100.00
18918;BME280;9591;52.742;13.650;2023-07-31T05:47:02;100384.03;;;20.90;100.00
18918;BME280;9591;52.742;13.650;2023-07-31T05:49:49;100370.59;;;20.90;100.00
18918;BME280;9591;52.742;13.650;2023-07-31T05:52:38;100382.34;;;20.78;100.00
18918;BME280;9591;52.742;13.650;2023-07-31T05:55:26;100379.03;;;20.86;100.00
18918;BME280;9591;52.742;13.650;2023-07-31T05:58:13;100379.16;;;20.84;100.00
18918;BME280;9591;52.742;13.650;2023-07-31T06:01:00;100377.44;;;20.94;100.00
18918;BME280;9591;52.742;13.650;2023-07-31T06:03:47;100376.94;;;21.01;100.00
18918;BME280;9591;52.742;13.650;2023-07-31T06:06:33;100368.84;;;21.12;100.00
18918;BME280;9591;52.742;13.650;2023-07-31T06:09:20;100378.53;;;20.92;100.00
18918;BME280;9591;52.742;13.650;2023-07-31T06:12:09;100378.41;;;20.93;100.00
18918;BME280;9591;52.742;13.650;2023-07-31T06:14:56;100386.97;;;20.99;100.00
18918;BME280;9591;52.742;13.650;2023-07-31T06:17:47;100385.97;;;21.11;100.00
18918;BME280;9591;52.742;13.650;2023-07-31T06:20:36;100379.47;;;21.36;100.00
18918;BME280;9591;52.742;13.650;2023-07-31T06:23:26;100373.25;;;21.24;100.00
18918;BME280;9591;52.742;13.650;2023-07-31T06:26:13;100374.56;;;21.18;100.00
18918;BME280;9591;52.742;13.650;2023-07-31T06:29:01;100371.28;;;21.26;100.00
18918;BME280;9591;52.742;13.650;2023-07-31T06:31:48;100370.72;;;21.54;100.00
18918;BME280;9591;52.742;13.650;2023-07-31T06:34:34;100298.06;;;21.21;100.00
18918;BME280;9591;52.742;13.650;2023-07-31T06:37:21;100368.44;;;21.39;100.00
18918;BME280;9591;52.742;13.650;2023-07-31T06:40:09;100372.56;;;21.54;100.00
18918;BME280;9591;52.742;13.650;2023-07-31T06:42:57;100377.09;;;21.53;100.00
18918;BME280;9591;52.742;13.650;2023-07-31T06:45:45;100354.09;;;21.70;100.00
18918;BME280;9591;52.742;13.650;2023-07-31T06:48:36;100359.69;;;21.78;100.00
18918;BME280;9591;52.742;13.650;2023-07-31T06:51:23;100370.50;;;22.41;100.00
18918;BME280;9591;52.742;13.650;2023-07-31T06:54:10;100364.38;;;22.39;100.00
18918;BME280;9591;52.742;13.650;2023-07-31T06:56:57;100349.47;;;22.35;100.00
18918;BME280;9591;52.742;13.650;2023-07-31T06:59:44;100354.06;;;22.44;100.00
18918;BME280;9591;52.742;13.650;2023-07-31T07:02:32;100361.44;;;22.42;100.00
18918;BME280;9591;52.742;13.650;2023-07-31T07:05:19;100363.13;;;22.43;100.00
18918;BME280;9591;52.742;13.650;2023-07-31T07:08:06;100360.53;;;22.32;100.00
18918;BME280;9591;52.742;13.650;2023-07-31T07:10:53;100315.19;;;21.84;100.00
18918;BME280;9591;52.742;13.650;2023-07-31T07:13:41;100359.19;;;22.47;100.00
18918;BME280;9591;52.742;13.650;2023-07-31T07:16:28;100341.44;;;22.23;100.00
18918;BME280;9591;52.742;13.650;2023-07-31T07:19:16;100356.97;;;22.31;100.00
18918;BME280;9591;52.742;13.650;2023-07-31T07:22:04;100350.03;;;22.38;100.00
18918;BME280;9591;52.742;13.650;2023-07-31T07:24:51;100352.41;;;22.62;100.00
18918;BME280;9591;52.742;13.650;2023-07-31T07:27:38;100359.69;;;21.99;100.00
18918;BME280;9591;52.742;13.650;2023-07-31T07:30:25;100345.97;;;22.53;100.00
18918;BME280;9591;52.742;13.650;2023-07-31T07:33:12;100340.66;;;22.33;100.00
18918;BME280;9591;52.742;13.650;2023-07-31T07:36:01;100340.28;;;22.16;100.00
18918;BME280;9591;52.742;13.650;2023-07-31T07:38:48;100345.97;;;22.53;100.00
18918;BME280;9591;52.742;13.650;2023-07-31T07:41:35;100349.41;;;22.04;100.00
18918;BME280;9591;52.742;13.650;2023-07-31T07:44:23;100346.75;;;21.93;100.00
18918;BME280;9591;52.742;13.650;2023-07-31T07:47:12;100345.59;;;22.28;100.00
18918;BME280;9591;52.742;13.650;2023-07-31T07:50:04;100342.03;;;22.27;100.00
18918;BME280;9591;52.742;13.650;2023-07-31T07:52:57;100338.19;;;22.50;100.00
18918;BME280;9591;52.742;13.650;2023-07-31T07:55:46;100343.91;;;22.67;100.00
18918;BME280;9591;52.742;13.650;2023-07-31T07:58:33;100325.66;;;22.80;100.00
18918;BME280;9591;52.742;13.650;2023-07-31T08:01:20;100332.94;;;22.89;100.00
18918;BME280;9591;52.742;13.650;2023-07-31T08:04:07;100327.75;;;22.76;100.00
18918;BME280;9591;52.742;13.650;2023-07-31T08:06:54;100328.13;;;22.93;100.00
18918;BME280;9591;52.742;13.650;2023-07-31T08:09:42;100331.41;;;22.96;100.00
18918;BME280;9591;52.742;13.650;2023-07-31T08:12:29;100333.88;;;22.78;100.00
18918;BME280;9591;52.742;13.650;2023-07-31T08:15:16;100325.75;;;22.78;100.00
18918;BME280;9591;52.742;13.650;2023-07-31T08:18:03;100315.88;;;22.58;100.00
18918;BME280;9591;52.742;13.650;2023-07-31T08:20:50;100319.44;;;22.58;100.00
18918;BME280;9591;52.742;13.650;2023-07-31T08:23:36;100314.56;;;22.43;100.00
18918;BME280;9591;52.742;13.650;2023-07-31T08:26:25;100315.34;;;22.64;100.00
18918;BME280;9591;52.742;13.650;2023-07-31T08:29:11;100308.41;;;22.71;100.00
18918;BME280;9591;52.742;13.650;2023-07-31T08:31:58;100302.84;;;23.03;100.00
18918;BME280;9591;52.742;13.650;2023-07-31T08:34:45;100299.75;;;23.27;100.00
18918;BME280;9591;52.742;13.650;2023-07-31T08:37:32;100298.47;;;23.31;100.00
18918;BME280;9591;52.742;13.650;2023-07-31T08:40:19;100298.88;;;23.17;100.00
18918;BME280;9591;52.742;13.650;2023-07-31T08:43:08;100301.38;;;22.80;100.00
18918;BME280;9591;52.742;13.650;2023-07-31T08:45:55;100292.09;;;22.33;100.00
18918;BME280;9591;52.742;13.650;2023-07-31T08:48:43;100291.19;;;23.03;100.00
18918;BME280;9591;52.742;13.650;2023-07-31T08:51:30;100291.66;;;22.77;100.00
18918;BME280;9591;52.742;13.650;2023-07-31T08:54:17;100286.66;;;23.13;100.00
18918;BME280;9591;52.742;13.650;2023-07-31T08:57:05;100300.38;;;22.41;100.00
18918;BME280;9591;52.742;13.650;2023-07-31T08:59:55;100292.72;;;22.46;100.00
18918;BME280;9591;52.742;13.650;2023-07-31T09:02:52;100302.09;;;22.82;100.00
18918;BME280;9591;52.742;13.650;2023-07-31T09:05:57;100310.84;;;22.74;100.00
18918;BME280;9591;52.742;13.650;2023-07-31T09:09:14;100287.38;;;22.65;100.00
18918;BME280;9591;52.742;13.650;2023-07-31T09:12:05;100302.41;;;22.58;100.00
18918;BME280;9591;52.742;13.650;2023-07-31T09:14:56;100312.72;;;22.13;100.00
18918;BME280;9591;52.742;13.650;2023-07-31T09:17:43;100302.84;;;22.02;100.00
18918;BME280;9591;52.742;13.650;2023-07-31T09:20:30;100311.06;;;21.59;100.00
18918;BME280;9591;52.742;13.650;2023-07-31T09:23:17;100233.34;;;21.85;100.00
18918;BME280;9591;52.742;13.650;2023-07-31T09:26:03;100306.59;;;22.11;100.00
18918;BME280;9591;52.742;13.650;2023-07-31T09:28:52;100296.66;;;21.70;100.00
18918;BME280;9591;52.742;13.650;2023-07-31T09:31:41;100297.97;;;21.96;100.00
18918;BME280;9591;52.742;13.650;2023-07-31T09:34:29;100296.94;;;22.08;100.00
18918;BME280;9591;52.742;13.650;2023-07-31T09:37:16;100294.88;;;21.80;100.00
18918;BME280;9591;52.742;13.650;2023-07-31T09:40:05;100288.63;;;22.21;100.00
18918;BME280;9591;52.742;13.650;2023-07-31T09:42:53;100290.88;;;22.16;100.00
18918;BME280;9591;52.742;13.650;2023-07-31T09:45:41;100288.22;;;22.26;100.00
18918;BME280;9591;52.742;13.650;2023-07-31T09:48:29;100287.59;;;22.43;100.00
18918;BME280;9591;52.742;13.650;2023-07-31T09:51:25;100291.81;;;22.36;100.00
18918;BME280;9591;52.742;13.650;2023-07-31T09:54:13;100290.78;;;22.67;100.00
18918;BME280;9591;52.742;13.650;2023-07-31T09:57:00;100288.69;;;22.31;100.00
18918;BME280;9591;52.742;13.650;2023-07-31T09:59:48;100279.09;;;21.96;100.00
18918;BME280;9591;52.742;13.650;2023-07-31T10:02:36;100268.50;;;21.83;100.00
18918;BME280;9591;52.742;13.650;2023-07-31T10:05:30;100277.25;;;21.76;100.00
18918;BME280;9591;52.742;13.650;2023-07-31T10:08:19;100273.31;;;22.21;100.00
18918;BME280;9591;52.742;13.650;2023-07-31T10:11:09;100276.94;;;22.41;100.00
18918;BME280;9591;52.742;13.650;2023-07-31T10:13:57;100279.50;;;21.91;100.00
18918;BME280;9591;52.742;13.650;2023-07-31T10:16:44;100278.22;;;21.96;100.00
18918;BME280;9591;52.742;13.650;2023-07-31T10:19:31;100275.69;;;22.45;100.00
18918;BME280;9591;52.742;13.650;2023-07-31T10:22:21;100273.38;;;21.69;100.00
18918;BME280;9591;52.742;13.650;2023-07-31T10:25:08;100270.88;;;21.77;100.00
18918;BME280;9591;52.742;13.650;2023-07-31T10:27:57;100267.72;;;21.92;100.00
18918;BME280;9591;52.742;13.650;2023-07-31T10:30:44;100268.16;;;21.98;100.00
18918;BME280;9591;52.742;13.650;2023-07-31T10:33:31;100271.78;;;22.29;100.00
18918;BME280;9591;52.742;13.650;2023-07-31T10:36:20;100249.97;;;21.90;100.00
18918;BME280;9591;52.742;13.650;2023-07-31T10:39:33;100261.03;;;21.87;100.00
18918;BME280;9591;52.742;13.650;2023-07-31T10:42:27;100256.50;;;22.08;100.00
18918;BME280;9591;52.742;13.650;2023-07-31T10:45:24;100234.69;;;21.49;100.00
18918;BME280;9591;52.742;13.650;2023-07-31T10:48:13;100251.00;;;21.99;100.00
18918;BME280;9591;52.742;13.650;2023-07-31T10:51:00;100258.41;;;21.55;100.00
18918;BME280;9591;52.742;13.650;2023-07-31T10:53:47;100252.75;;;22.30;100.00
18918;BME280;9591;52.742;13.650;2023-07-31T10:56:38;100261.19;;;22.56;100.00
18918;BME280;9591;52.742;13.650;2023-07-31T10:59:26;100246.97;;;22.04;100.00
18918;BME280;9591;52.742;13.650;2023-07-31T11:02:25;100246.88;;;22.15;100.00
18918;BME280;9591;52.742;13.650;2023-07-31T11:05:15;100247.00;;;22.54;100.00
18918;BME280;9591;52.742;13.650;2023-07-31T11:08:10;100252.28;;;22.65;100.00
18918;BME280;9591;52.742;13.650;2023-07-31T11:11:07;100238.91;;;23.13;100.00
18918;BME280;9591;52.742;13.650;2023-07-31T11:13:55;100239.91;;;22.63;100.00
18918;BME280;9591;52.742;13.650;2023-07-31T11:16:42;100231.53;;;22.66;100.00
18918;BME280;9591;52.742;13.650;2023-07-31T11:19:29;100225.13;;;22.47;100.00
18918;BME280;9591;52.742;13.650;2023-07-31T11:22:17;100218.50;;;22.71;100.00
18918;BME280;9591;52.742;13.650;2023-07-31T11:25:06;100229.66;;;23.35;100.00
18918;BME280;9591;52.742;13.650;2023-07-31T11:27:54;100229.22;;;22.92;100.00
18918;BME280;9591;52.742;13.650;2023-07-31T11:30:44;100226.53;;;23.11;100.00
18918;BME280;9591;52.742;13.650;2023-07-31T11:33:31;100220.41;;;23.28;100.00
18918;BME280;9591;52.742;13.650;2023-07-31T11:36:20;100220.22;;;23.68;100.00
18918;BME280;9591;52.742;13.650;2023-07-31T11:39:08;100218.09;;;23.72;100.00
18918;BME280;9591;52.742;13.650;2023-07-31T11:41:58;100224.75;;;23.87;100.00
18918;BME280;9591;52.742;13.650;2023-07-31T11:44:45;100222.97;;;23.39;100.00
18918;BME280;9591;52.742;13.650;2023-07-31T11:47:36;100208.44;;;23.40;100.00
18918;BME280;9591;52.742;13.650;2023-07-31T11:50:24;100208.03;;;24.01;100.00
18918;BME280;9591;52.742;13.650;2023-07-31T11:53:19;100200.47;;;23.68;100.00
18918;BME280;9591;52.742;13.650;2023-07-31T11:56:09;100199.25;;;24.54;100.00
18918;BME280;9591;52.742;13.650;2023-07-31T11:58:59;100196.63;;;24.62;100.00
18918;BME280;9591;52.742;13.650;2023-07-31T12:01:48;100190.06;;;24.10;100.00
18918;BME280;9591;52.742;13.650;2023-07-31T12:04:41;100192.19;;;23.79;100.00
18918;BME280;9591;52.742;13.650;2023-07-31T12:07:46;100184.31;;;23.85;100.00
18918;BME280;9591;52.742;13.650;2023-07-31T12:10:36;100180.88;;;24.30;100.00
18918;BME280;9591;52.742;13.650;2023-07-31T12:13:27;100173.34;;;24.51;100.00
18918;BME280;9591;52.742;13.650;2023-07-31T12:16:15;100188.59;;;24.25;100.00
18918;BME280;9591;52.742;13.650;2023-07-31T12:19:04;100183.63;;;24.21;100.00
18918;BME280;9591;52.742;13.650;2023-07-31T12:21:54;100176.09;;;24.14;99.70
18918;BME280;9591;52.742;13.650;2023-07-31T12:24:42;100183.69;;;23.64;100.00
18918;BME280;9591;52.742;13.650;2023-07-31T12:27:33;100166.38;;;24.22;98.53
18918;BME280;9591;52.742;13.650;2023-07-31T12:30:27;100172.03;;;24.01;95.57
18918;BME280;9591;52.742;13.650;2023-07-31T12:33:14;100176.66;;;23.81;97.10
18918;BME280;9591;52.742;13.650;2023-07-31T12:36:03;100170.19;;;24.01;96.12
18918;BME280;9591;52.742;13.650;2023-07-31T12:38:53;100169.25;;;24.20;98.44
18918;BME280;9591;52.742;13.650;2023-07-31T12:41:46;100163.09;;;24.28;98.43
18918;BME280;9591;52.742;13.650;2023-07-31T12:44:33;100160.63;;;24.34;100.00
18918;BME280;9591;52.742;13.650;2023-07-31T12:47:20;100175.03;;;24.52;96.22
18918;BME280;9591;52.742;13.650;2023-07-31T12:50:08;100150.31;;;24.20;98.42
18918;BME280;9591;52.742;13.650;2023-07-31T12:53:05;100164.47;;;24.59;96.05
18918;BME280;9591;52.742;13.650;2023-07-31T12:55:55;100163.13;;;24.18;93.32
18918;BME280;9591;52.742;13.650;2023-07-31T12:58:43;100164.59;;;24.12;96.95
18918;BME280;9591;52.742;13.650;2023-07-31T13:01:30;100164.06;;;24.54;97.17
18918;BME280;9591;52.742;13.650;2023-07-31T13:04:18;100170.75;;;24.05;97.03
18918;BME280;9591;52.742;13.650;2023-07-31T13:07:06;100164.38;;;24.24;95.08
18918;BME280;9591;52.742;13.650;2023-07-31T13:09:58;100154.16;;;23.90;100.00
18918;BME280;9591;52.742;13.650;2023-07-31T13:12:48;100158.97;;;24.51;98.08
18918;BME280;9591;52.742;13.650;2023-07-31T13:15:35;100158.13;;;24.23;97.73
18918;BME280;9591;52.742;13.650;2023-07-31T13:18:22;100156.66;;;24.01;100.00
18918;BME280;9591;52.742;13.650;2023-07-31T13:21:09;100153.75;;;24.12;100.00
18918;BME280;9591;52.742;13.650;2023-07-31T13:23:55;100149.34;;;24.11;100.00
18918;BME280;9591;52.742;13.650;2023-07-31T13:26:43;100149.94;;;24.05;100.00
18918;BME280;9591;52.742;13.650;2023-07-31T13:29:31;100149.97;;;24.50;99.29
18918;BME280;9591;52.742;13.650;2023-07-31T13:32:19;100144.63;;;24.41;100.00
18918;BME280;9591;52.742;13.650;2023-07-31T13:35:07;100142.28;;;24.91;96.55
18918;BME280;9591;52.742;13.650;2023-07-31T13:37:54;100131.78;;;25.06;98.32
18918;BME280;9591;52.742;13.650;2023-07-31T13:40:41;100139.69;;;25.25;95.40
18918;BME280;9591;52.742;13.650;2023-07-31T13:43:27;100137.22;;;25.14;96.18
18918;BME280;9591;52.742;13.650;2023-07-31T13:46:16;100143.75;;;24.86;94.80
18918;BME280;9591;52.742;13.650;2023-07-31T13:49:03;100128.97;;;24.80;97.44
18918;BME280;9591;52.742;13.650;2023-07-31T13:51:50;100124.00;;;24.93;98.10
18918;BME280;9591;52.742;13.650;2023-07-31T13:54:37;100126.19;;;24.72;97.71
18918;BME280;9591;52.742;13.650;2023-07-31T13:57:24;100127.56;;;24.76;97.92
18918;BME280;9591;52.742;13.650;2023-07-31T14:00:12;100121.84;;;24.61;97.82
18918;BME280;9591;52.742;13.650;2023-07-31T14:03:03;100102.59;;;24.82;94.20
18918;BME280;9591;52.742;13.650;2023-07-31T14:05:52;100116.63;;;25.21;94.85
18918;BME280;9591;52.742;13.650;2023-07-31T14:08:41;100104.00;;;25.30;93.20
18918;BME280;9591;52.742;13.650;2023-07-31T14:11:28;100112.50;;;25.09;93.96
18918;BME280;9591;52.742;13.650;2023-07-31T14:14:16;100114.81;;;25.30;94.48
18918;BME280;9591;52.742;13.650;2023-07-31T14:17:06;100102.81;;;25.06;95.88
18918;BME280;9591;52.742;13.650;2023-07-31T14:19:54;100098.47;;;24.96;95.73
18918;BME280;9591;52.742;13.650;2023-07-31T14:22:42;100105.75;;;24.77;98.11
18918;BME280;9591;52.742;13.650;2023-07-31T14:25:29;100104.91;;;24.59;95.86
18918;BME280;9591;52.742;13.650;2023-07-31T14:28:16;100093.53;;;24.73;97.68
18918;BME280;9591;52.742;13.650;2023-07-31T14:31:03;100087.63;;;25.13;98.48